Time;durP1;ratioP1;P1;durP2;ratioP2;P2;SDS_P1;SDS_P2;PMS_P1;PMS_P2;Temp;Humidity;BMP_temperature;BMP_pressure;BME280_temperature;BME280_humidity;BME280_pressure;Samples;Min_cycle;Max_cycle;Signal;HPM_P1;HPM_P2
2021/01/25 00:00:50;;;;;;;;;;;-3.20;99.90;;;;;;5017877;28;20722;-72
2021/01/25 00:03:16;;;;;;;;;;;;;;;;;;5022471;28;20381;-72
2021/01/25 00:05:42;;;;;;;;;;;-3.40;99.90;;;;;;5018564;28;19928;-72
2021/01/25 00:08:07;;;;;;;;;;;-3.10;99.90;;;;;;5016957;28;20308;-73
2021/01/25 00:10:33;;;;;;;;;;;-3.10;99.90;;;;;;5020064;28;19921;-72
2021/01/25 00:12:58;;;;;;;;;;;-3.30;99.90;;;;;;5019376;28;19943;-73
2021/01/25 00:15:24;;;;;;;;;;;-3.00;99.90;;;;;;5019796;28;19971;-72
2021/01/25 00:17:52;;;;;;;;;;;-3.30;99.90;;;;;;5017715;28;19924;-73
2021/01/25 00:20:17;;;;;;;;;;;-3.20;99.90;;;;;;5017772;28;19917;-73
2021/01/25 00:22:43;;;;;;;;;;;-3.20;99.90;;;;;;5023152;28;20089;-72
2021/01/25 00:25:09;;;;;;;;;;;-3.10;99.90;;;;;;5026592;28;19982;-72
2021/01/25 00:27:34;;;;;;;;;;;-3.10;99.90;;;;;;5019322;28;20023;-73
2021/01/25 00:30:00;;;;;;;;;;;-2.90;99.90;;;;;;5018560;28;19917;-73
2021/01/25 00:32:25;;;;;;;;;;;-3.20;99.90;;;;;;5020383;28;20017;-72
2021/01/25 00:34:51;;;;;;;;;;;-3.30;99.90;;;;;;5017950;28;19928;-72
2021/01/25 00:37:16;;;;;;;;;;;-3.30;99.90;;;;;;5020943;28;19913;-72
2021/01/25 00:39:45;;;;;;;;;;;-3.40;99.90;;;;;;5020274;28;19917;-72
2021/01/25 00:42:10;;;;;;;;;;;-3.60;99.90;;;;;;5031825;28;19920;-73
2021/01/25 00:44:36;;;;;;;;;;;-3.30;99.90;;;;;;5018295;28;19921;-73
2021/01/25 00:47:01;;;;;;;;;;;-3.40;99.90;;;;;;5020956;28;19921;-73
2021/01/25 00:49:27;;;;;;;;;;;-3.30;99.90;;;;;;5018038;28;20520;-74
2021/01/25 00:51:52;;;;;;;;;;;-3.20;99.90;;;;;;5021236;28;20020;-71
2021/01/25 00:54:17;;;;;;;;;;;-3.40;99.90;;;;;;5018113;28;20304;-72
2021/01/25 00:56:46;;;;;;;;;;;-3.30;99.90;;;;;;5036495;28;19925;-72
2021/01/25 00:59:12;;;;;;;;;;;-3.40;99.90;;;;;;5034250;28;19948;-71
2021/01/25 01:01:38;;;;;;;;;;;;;;;;;;5019324;28;19916;-72
2021/01/25 01:04:03;;;;;;;;;;;-3.90;99.90;;;;;;5019463;28;19960;-72
2021/01/25 01:06:29;;;;;;;;;;;-3.50;99.90;;;;;;5015181;28;19917;-71
2021/01/25 01:08:54;;;;;;;;;;;-3.60;99.90;;;;;;5022749;28;19921;-71
2021/01/25 01:11:20;;;;;;;;;;;-3.60;99.90;;;;;;5016581;28;19917;-73
2021/01/25 01:13:45;;;;;;;;;;;-3.40;99.90;;;;;;5018431;28;19913;-71
2021/01/25 01:16:11;;;;;;;;;;;-3.60;99.90;;;;;;5020177;28;19966;-73
2021/01/25 01:18:36;;;;;;;;;;;-3.60;99.90;;;;;;5017716;28;20388;-73
2021/01/25 01:21:03;;;;;;;;;;;-3.90;99.90;;;;;;5019028;28;19971;-73
2021/01/25 01:23:28;;;;;;;;;;;-3.80;99.90;;;;;;5017381;28;19921;-74
2021/01/25 01:25:54;;;;;;;;;;;-3.50;99.90;;;;;;5017041;28;20495;-73
2021/01/25 01:28:19;;;;;;;;;;;-3.70;99.90;;;;;;5017815;28;19924;-73
2021/01/25 01:30:45;;;;;;;;;;;-3.60;99.90;;;;;;5019018;28;20329;-71
2021/01/25 01:33:10;;;;;;;;;;;-4.10;99.90;;;;;;5017905;28;19921;-72
2021/01/25 01:35:35;;;;;;;;;;;-3.40;99.90;;;;;;5037275;28;19923;-72
2021/01/25 01:38:01;;;;;;;;;;;-3.70;99.90;;;;;;5019722;28;19978;-70
2021/01/25 01:40:26;;;;;;;;;;;-3.30;99.90;;;;;;5020015;28;20072;-74
2021/01/25 01:42:52;;;;;;;;;;;-3.70;99.90;;;;;;5018892;28;20348;-73
2021/01/25 01:45:17;;;;;;;;;;;-3.80;99.90;;;;;;5018851;28;19952;-73
2021/01/25 01:47:44;;;;;;;;;;;-3.70;99.90;;;;;;5018561;28;19921;-73
2021/01/25 01:50:10;;;;;;;;;;;-3.70;99.90;;;;;;5019950;28;19913;-73
2021/01/25 01:52:36;;;;;;;;;;;-3.80;99.90;;;;;;5019016;28;19971;-71
2021/01/25 01:55:05;;;;;;;;;;;-3.80;99.90;;;;;;5016977;28;19932;-73
2021/01/25 01:57:33;;;;;;;;;;;-4.00;99.90;;;;;;5017429;28;19917;-73
2021/01/25 01:59:59;;;;;;;;;;;-3.80;99.90;;;;;;5015258;28;19971;-73
2021/01/25 02:02:25;;;;;;;;;;;-3.90;99.90;;;;;;5015206;28;19936;-73
2021/01/25 02:04:50;;;;;;;;;;;-3.70;99.90;;;;;;5021122;28;19921;-73
2021/01/25 02:07:17;;;;;;;;;;;-3.70;99.90;;;;;;5016945;28;19931;-73
2021/01/25 02:09:46;;;;;;;;;;;-3.70;99.90;;;;;;5019221;28;19921;-73
2021/01/25 02:12:12;;;;;;;;;;;-3.60;99.90;;;;;;5034775;28;19917;-73
2021/01/25 02:14:38;;;;;;;;;;;-3.70;99.90;;;;;;5016562;28;19928;-73
2021/01/25 02:17:04;;;;;;;;;;;-3.70;99.90;;;;;;5020661;28;20340;-74
2021/01/25 02:19:42;;;;;;;;;;;-3.80;99.90;;;;;;5018742;28;20004;-73
2021/01/25 02:22:11;;;;;;;;;;;-3.80;99.90;;;;;;5016503;28;19913;-73
2021/01/25 02:24:44;;;;;;;;;;;-3.70;99.90;;;;;;5020126;28;19928;-73
2021/01/25 02:27:10;;;;;;;;;;;-3.60;99.90;;;;;;5016187;28;19914;-73
2021/01/25 02:29:35;;;;;;;;;;;-3.60;99.90;;;;;;5019526;28;19919;-72
2021/01/25 02:32:01;;;;;;;;;;;-3.50;99.90;;;;;;5020220;28;20316;-71
2021/01/25 02:34:29;;;;;;;;;;;-3.70;99.90;;;;;;5016858;28;20577;-72
2021/01/25 02:36:56;;;;;;;;;;;-3.00;99.90;;;;;;5019576;28;19928;-73
2021/01/25 02:39:22;;;;;;;;;;;-3.80;99.90;;;;;;5016940;28;20328;-72
2021/01/25 02:41:47;;;;;;;;;;;-3.80;99.90;;;;;;5020571;28;19913;-72
2021/01/25 02:44:14;;;;;;;;;;;-4.00;99.90;;;;;;5022578;28;19925;-72
2021/01/25 02:46:39;;;;;;;;;;;-4.00;99.90;;;;;;5022078;28;19928;-72
2021/01/25 02:49:05;;;;;;;;;;;-4.00;99.90;;;;;;5024885;28;19929;-72
2021/01/25 02:51:30;;;;;;;;;;;-3.80;99.90;;;;;;5018876;28;19949;-72
2021/01/25 02:53:56;;;;;;;;;;;-4.10;99.90;;;;;;5023025;28;19968;-72
2021/01/25 02:56:21;;;;;;;;;;;-4.10;99.90;;;;;;5017549;28;19917;-72
2021/01/25 02:58:47;;;;;;;;;;;-4.10;99.90;;;;;;5020653;28;19913;-72
2021/01/25 03:01:13;;;;;;;;;;;-3.90;99.90;;;;;;5019853;28;20055;-72
2021/01/25 03:03:39;;;;;;;;;;;-4.10;99.90;;;;;;5026377;28;20011;-73
2021/01/25 03:06:04;;;;;;;;;;;-4.00;99.90;;;;;;5026832;28;19917;-72
2021/01/25 03:08:30;;;;;;;;;;;-4.00;99.90;;;;;;5026590;28;19947;-72
2021/01/25 03:10:56;;;;;;;;;;;-3.90;99.90;;;;;;5021157;28;19917;-72
2021/01/25 03:13:31;;;;;;;;;;;-4.00;99.90;;;;;;5027058;28;20303;-73
2021/01/25 03:15:59;;;;;;;;;;;;;;;;;;5024483;28;19916;-74
2021/01/25 03:18:25;;;;;;;;;;;-4.10;99.90;;;;;;5024514;28;20304;-72
2021/01/25 03:20:51;;;;;;;;;;;-3.80;99.90;;;;;;5024003;28;19913;-72
2021/01/25 03:23:16;;;;;;;;;;;-3.90;99.90;;;;;;5021194;28;19935;-72
2021/01/25 03:25:42;;;;;;;;;;;-3.90;99.90;;;;;;5025939;28;19913;-72
2021/01/25 03:28:08;;;;;;;;;;;-3.90;99.90;;;;;;5024955;28;19921;-72
2021/01/25 03:30:33;;;;;;;;;;;-3.80;99.90;;;;;;5024033;28;19952;-71
2021/01/25 03:32:59;;;;;;;;;;;-3.60;99.90;;;;;;5025434;28;20328;-72
2021/01/25 03:35:24;;;;;;;;;;;-3.60;99.90;;;;;;5020728;28;19913;-72
2021/01/25 03:37:50;;;;;;;;;;;-3.90;99.90;;;;;;5021107;28;20761;-72
2021/01/25 03:40:15;;;;;;;;;;;-3.60;99.90;;;;;;5024885;28;19940;-72
2021/01/25 03:42:41;;;;;;;;;;;-3.70;99.90;;;;;;5022923;28;19966;-73
2021/01/25 03:45:07;;;;;;;;;;;-3.70;99.90;;;;;;5022034;28;19921;-73
2021/01/25 03:47:32;;;;;;;;;;;-3.80;99.90;;;;;;5039514;28;20017;-73
2021/01/25 03:49:58;;;;;;;;;;;-2.20;99.90;;;;;;5025173;28;19921;-72
2021/01/25 03:52:24;;;;;;;;;;;-3.10;99.90;;;;;;5025131;28;19952;-72
2021/01/25 03:54:52;;;;;;;;;;;-3.70;99.90;;;;;;5023270;28;20352;-72
2021/01/25 03:57:17;;;;;;;;;;;-3.40;99.90;;;;;;5025625;28;19960;-72
2021/01/25 03:59:43;;;;;;;;;;;-3.40;99.90;;;;;;5023073;28;20007;-74
2021/01/25 04:02:08;;;;;;;;;;;-3.40;99.90;;;;;;5016065;28;19913;-72
2021/01/25 04:04:34;;;;;;;;;;;-3.40;99.90;;;;;;5025177;28;19928;-72
2021/01/25 04:07:00;;;;;;;;;;;-3.40;99.90;;;;;;5020014;28;20006;-72
2021/01/25 04:09:25;;;;;;;;;;;-3.40;99.90;;;;;;5020626;28;19921;-72
2021/01/25 04:11:51;;;;;;;;;;;-2.90;99.90;;;;;;5017702;28;20411;-73
2021/01/25 04:14:16;;;;;;;;;;;-3.30;99.90;;;;;;5020324;28;19921;-72
2021/01/25 04:16:42;;;;;;;;;;;-3.30;99.90;;;;;;5017776;28;19917;-72
2021/01/25 04:19:07;;;;;;;;;;;-3.30;99.90;;;;;;5020928;28;20090;-73
2021/01/25 04:21:33;;;;;;;;;;;-3.50;99.90;;;;;;5023484;28;19917;-72
2021/01/25 04:23:59;;;;;;;;;;;-3.20;99.90;;;;;;5017193;28;20078;-72
2021/01/25 04:26:24;;;;;;;;;;;-3.20;99.90;;;;;;5020466;28;19917;-72
2021/01/25 04:28:50;;;;;;;;;;;-3.20;99.90;;;;;;5019770;28;20040;-72
2021/01/25 04:31:15;;;;;;;;;;;-3.10;99.90;;;;;;5018940;28;20414;-72
2021/01/25 04:33:41;;;;;;;;;;;-3.20;99.90;;;;;;5020564;28;19960;-72
2021/01/25 04:36:06;;;;;;;;;;;-3.20;99.90;;;;;;5018071;28;20059;-72
2021/01/25 04:38:32;;;;;;;;;;;-3.20;99.90;;;;;;5021754;28;20288;-73
2021/01/25 04:40:58;;;;;;;;;;;-3.00;99.90;;;;;;5020104;28;20627;-72
2021/01/25 04:43:24;;;;;;;;;;;-3.20;99.90;;;;;;5019319;28;19925;-73
2021/01/25 04:45:49;;;;;;;;;;;-3.30;99.90;;;;;;5019988;28;20341;-73
2021/01/25 04:48:15;;;;;;;;;;;-3.00;99.90;;;;;;5018018;28;19971;-72
2021/01/25 04:50:41;;;;;;;;;;;-3.10;99.90;;;;;;5017791;28;20288;-72
2021/01/25 04:53:07;;;;;;;;;;;-3.00;99.90;;;;;;5019455;28;19971;-72
2021/01/25 04:55:33;;;;;;;;;;;-2.90;99.90;;;;;;5017978;28;19921;-71
2021/01/25 04:57:59;;;;;;;;;;;-2.80;99.90;;;;;;5021919;28;20163;-71
2021/01/25 05:00:24;;;;;;;;;;;-2.20;99.90;;;;;;5033947;28;20555;-71
2021/01/25 05:02:50;;;;;;;;;;;-3.00;99.90;;;;;;5033424;28;20125;-71
2021/01/25 05:05:15;;;;;;;;;;;-3.00;99.90;;;;;;5037373;28;20505;-71
2021/01/25 05:07:41;;;;;;;;;;;-2.40;99.90;;;;;;5016700;28;20012;-70
2021/01/25 05:10:08;;;;;;;;;;;-2.90;99.90;;;;;;5013825;28;19974;-70
2021/01/25 05:12:43;;;;;;;;;;;-3.10;99.90;;;;;;5019458;28;19917;-69
2021/01/25 05:15:10;;;;;;;;;;;-2.90;99.90;;;;;;5016803;28;19927;-71
2021/01/25 05:17:36;;;;;;;;;;;-3.00;99.90;;;;;;5017561;28;19917;-69
2021/01/25 05:20:03;;;;;;;;;;;-2.80;99.90;;;;;;5014562;28;20669;-71
2021/01/25 05:22:35;;;;;;;;;;;-3.20;99.90;;;;;;5017164;28;19917;-69
2021/01/25 05:25:03;;;;;;;;;;;-3.10;99.90;;;;;;5019264;28;19960;-69
2021/01/25 05:27:30;;;;;;;;;;;-2.80;99.90;;;;;;5020831;28;19917;-71
2021/01/25 05:30:06;;;;;;;;;;;-2.40;99.90;;;;;;5016786;28;19931;-71
2021/01/25 05:32:42;;;;;;;;;;;-2.90;99.90;;;;;;5016615;28;19922;-69
2021/01/25 05:35:08;;;;;;;;;;;-3.00;99.90;;;;;;5036955;28;19928;-69
2021/01/25 05:37:35;;;;;;;;;;;-3.00;99.90;;;;;;5016519;28;19913;-70
2021/01/25 05:40:00;;;;;;;;;;;-3.00;99.90;;;;;;5018526;28;19923;-70
2021/01/25 05:42:33;;;;;;;;;;;-3.10;99.90;;;;;;5018073;28;19917;-70
2021/01/25 05:45:08;;;;;;;;;;;-3.20;99.90;;;;;;5014099;28;19959;-70
2021/01/25 05:47:44;;;;;;;;;;;-3.20;99.90;;;;;;5017023;28;19924;-71
2021/01/25 05:50:10;;;;;;;;;;;-3.10;99.90;;;;;;5019531;28;19914;-71
2021/01/25 05:52:41;;;;;;;;;;;-3.10;99.90;;;;;;5017227;28;20588;-71
2021/01/25 05:55:06;;;;;;;;;;;-2.80;99.90;;;;;;5033370;28;19917;-70
2021/01/25 05:57:32;;;;;;;;;;;-3.00;99.90;;;;;;5018977;28;19913;-70
2021/01/25 05:59:57;;;;;;;;;;;-3.00;99.90;;;;;;5016718;28;19917;-69
2021/01/25 06:02:24;;;;;;;;;;;-2.90;99.90;;;;;;5020214;28;20407;-72
2021/01/25 06:04:49;;;;;;;;;;;-2.80;99.90;;;;;;5015057;28;20035;-70
2021/01/25 06:07:16;;;;;;;;;;;-2.90;99.90;;;;;;5019776;28;19964;-71
2021/01/25 06:09:55;;;;;;;;;;;-2.90;99.90;;;;;;5022375;28;19913;-71
2021/01/25 06:12:23;;;;;;;;;;;-3.00;99.90;;;;;;5017221;28;20080;-72
2021/01/25 06:14:57;;;;;;;;;;;-3.00;99.90;;;;;;5019781;28;19924;-71
2021/01/25 06:17:24;;;;;;;;;;;-2.80;99.90;;;;;;5009921;28;20047;-71
2021/01/25 06:20:19;;;;;;;;;;;-2.80;99.90;;;;;;5015141;28;19917;-69
2021/01/25 06:22:49;;;;;;;;;;;-2.70;99.90;;;;;;4966649;28;19968;-69
2021/01/25 06:25:18;;;;;;;;;;;-2.70;99.90;;;;;;4964418;28;19925;-69
2021/01/25 06:27:44;;;;;;;;;;;-2.90;99.90;;;;;;4991642;28;20365;-69
2021/01/25 06:30:11;;;;;;;;;;;-2.40;99.90;;;;;;4973482;28;19914;-68
2021/01/25 06:32:41;;;;;;;;;;;-2.70;99.90;;;;;;4984233;28;19925;-68
2021/01/25 06:35:07;;;;;;;;;;;-2.70;99.90;;;;;;4993113;28;19918;-68
2021/01/25 06:37:34;;;;;;;;;;;-2.60;99.90;;;;;;4967763;28;19917;-68
2021/01/25 06:40:05;;;;;;;;;;;-2.40;99.90;;;;;;4988559;28;19961;-70
2021/01/25 06:42:33;;;;;;;;;;;-2.40;99.90;;;;;;4974743;28;19918;-71
2021/01/25 06:45:00;;;;;;;;;;;-2.60;99.90;;;;;;4959721;28;20404;-70
2021/01/25 06:47:27;;;;;;;;;;;-2.60;99.90;;;;;;4975235;28;19993;-72
2021/01/25 06:49:52;;;;;;;;;;;-2.00;99.90;;;;;;4985785;28;19937;-71
2021/01/25 06:52:18;;;;;;;;;;;-2.30;99.90;;;;;;4987449;28;20104;-73
2021/01/25 06:54:44;;;;;;;;;;;-2.50;99.90;;;;;;5017174;28;19956;-71
2021/01/25 06:57:20;;;;;;;;;;;-2.50;99.90;;;;;;5020412;28;20050;-71
2021/01/25 06:59:47;;;;;;;;;;;-2.50;99.90;;;;;;5018006;28;20464;-71
2021/01/25 07:02:16;;;;;;;;;;;-2.80;99.90;;;;;;5025383;28;19928;-69
2021/01/25 07:04:47;;;;;;;;;;;-2.60;99.90;;;;;;5018645;28;19979;-69
2021/01/25 07:07:20;;;;;;;;;;;-2.60;99.90;;;;;;5023428;28;19919;-71
2021/01/25 07:09:47;;;;;;;;;;;-2.50;99.90;;;;;;5023159;28;19917;-71
2021/01/25 07:12:13;;;;;;;;;;;-2.50;99.90;;;;;;5020741;28;19984;-71
2021/01/25 07:14:39;;;;;;;;;;;-2.40;99.90;;;;;;5014580;28;20504;-73
2021/01/25 07:17:04;;;;;;;;;;;-2.50;99.90;;;;;;5020934;28;19917;-71
2021/01/25 07:19:30;;;;;;;;;;;-2.50;99.90;;;;;;5011630;28;19963;-72
2021/01/25 07:21:59;;;;;;;;;;;-2.60;99.90;;;;;;5016457;28;19971;-71
2021/01/25 07:24:25;;;;;;;;;;;-2.50;99.90;;;;;;5020128;28;19951;-72
2021/01/25 07:26:52;;;;;;;;;;;-2.60;99.90;;;;;;5021129;28;19924;-72
2021/01/25 07:29:18;;;;;;;;;;;-2.70;99.90;;;;;;5017859;28;20443;-70
2021/01/25 07:31:44;;;;;;;;;;;-2.60;99.90;;;;;;5020606;28;19917;-73
2021/01/25 07:34:10;;;;;;;;;;;-2.40;99.90;;;;;;5020655;28;19917;-72
2021/01/25 07:36:36;;;;;;;;;;;-2.50;99.90;;;;;;5022199;28;19921;-73
2021/01/25 07:39:03;;;;;;;;;;;-2.60;99.90;;;;;;5019402;28;19921;-73
2021/01/25 07:41:29;;;;;;;;;;;-2.60;99.90;;;;;;5021640;28;19921;-71
2021/01/25 07:43:55;;;;;;;;;;;-2.50;99.90;;;;;;5021757;28;19932;-72
2021/01/25 07:46:22;;;;;;;;;;;-2.50;99.90;;;;;;5026801;28;20604;-73
2021/01/25 07:48:48;;;;;;;;;;;-2.10;99.90;;;;;;5023225;28;19955;-69
2021/01/25 07:51:23;;;;;;;;;;;-2.40;99.90;;;;;;5019916;28;20056;-73
2021/01/25 07:53:48;;;;;;;;;;;-2.50;99.90;;;;;;5008602;28;19917;-71
2021/01/25 07:56:18;;;;;;;;;;;-2.50;99.90;;;;;;5017493;28;20311;-72
2021/01/25 07:58:44;;;;;;;;;;;-2.60;99.90;;;;;;5015733;28;20013;-70
2021/01/25 08:01:13;;;;;;;;;;;-2.40;99.90;;;;;;5014982;28;19921;-70
2021/01/25 08:03:42;;;;;;;;;;;;;;;;;;5017502;28;20035;-72
2021/01/25 08:06:08;;;;;;;;;;;;;;;;;;5017483;28;20468;-73
2021/01/25 08:08:34;;;;;;;;;;;-2.60;99.90;;;;;;5017577;28;20521;-70
2021/01/25 08:11:00;;;;;;;;;;;-2.30;99.90;;;;;;5021036;28;19917;-71
2021/01/25 08:13:36;;;;;;;;;;;-2.50;99.90;;;;;;5019136;28;20312;-72
2021/01/25 08:16:04;;;;;;;;;;;-2.60;99.90;;;;;;5016476;28;19913;-74
2021/01/25 08:18:35;;;;;;;;;;;-2.40;99.90;;;;;;5020735;28;19913;-72
2021/01/25 08:21:01;;;;;;;;;;;-2.30;99.90;;;;;;5020262;28;19917;-70
2021/01/25 08:23:29;;;;;;;;;;;-2.40;99.90;;;;;;5020242;28;19999;-73
2021/01/25 08:25:55;;;;;;;;;;;-2.30;99.90;;;;;;5017065;28;20040;-72
2021/01/25 08:28:23;;;;;;;;;;;-2.30;99.90;;;;;;5020194;28;19917;-72
2021/01/25 08:30:49;;;;;;;;;;;-2.10;99.90;;;;;;5023774;28;20410;-71
2021/01/25 08:33:29;;;;;;;;;;;-2.00;99.90;;;;;;5020763;28;19951;-73
2021/01/25 08:35:56;;;;;;;;;;;-2.20;99.90;;;;;;5037556;28;20356;-70
2021/01/25 08:38:24;;;;;;;;;;;-2.40;99.90;;;;;;5017587;28;19943;-73
2021/01/25 08:40:50;;;;;;;;;;;-2.20;99.90;;;;;;5021146;28;19920;-71
2021/01/25 08:43:21;;;;;;;;;;;-2.10;99.90;;;;;;5019737;28;19924;-70
2021/01/25 08:45:47;;;;;;;;;;;-2.30;99.90;;;;;;5017662;28;20727;-70
2021/01/25 08:48:13;;;;;;;;;;;-2.00;99.90;;;;;;5022341;28;19913;-70
2021/01/25 08:50:39;;;;;;;;;;;-2.20;99.90;;;;;;5019256;28;19971;-70
2021/01/25 08:53:05;;;;;;;;;;;-2.10;99.90;;;;;;5020875;28;19921;-71
2021/01/25 08:55:43;;;;;;;;;;;-2.20;99.90;;;;;;5019538;28;19921;-68
2021/01/25 08:58:24;;;;;;;;;;;-2.20;99.90;;;;;;5015057;28;20591;-70
2021/01/25 09:00:50;;;;;;;;;;;-2.20;99.90;;;;;;5017739;28;20383;-68
2021/01/25 09:03:16;;;;;;;;;;;-1.80;99.90;;;;;;5018680;28;19924;-71
2021/01/25 09:05:42;;;;;;;;;;;-1.90;99.90;;;;;;5019680;28;19921;-72
2021/01/25 09:08:07;;;;;;;;;;;-1.80;99.90;;;;;;5021253;28;19913;-70
2021/01/25 09:10:34;;;;;;;;;;;-1.90;99.90;;;;;;5015678;28;19917;-71
2021/01/25 09:12:59;;;;;;;;;;;-2.00;99.90;;;;;;5017557;28;19992;-73
2021/01/25 09:15:26;;;;;;;;;;;-1.10;99.90;;;;;;5023298;28;20027;-69
2021/01/25 09:17:56;;;;;;;;;;;-1.80;99.90;;;;;;5018969;28;20760;-74
2021/01/25 09:20:22;;;;;;;;;;;-2.00;99.90;;;;;;5020457;28;19921;-72
2021/01/25 09:22:47;;;;;;;;;;;-1.80;99.90;;;;;;5017660;28;19963;-72
2021/01/25 09:25:13;;;;;;;;;;;-1.80;99.90;;;;;;5019713;28;19921;-72
2021/01/25 09:27:39;;;;;;;;;;;-1.50;99.90;;;;;;5017718;28;19916;-73
2021/01/25 09:30:05;;;;;;;;;;;-1.70;99.90;;;;;;5019068;28;19921;-72
2021/01/25 09:32:31;;;;;;;;;;;-1.70;99.90;;;;;;5018003;28;20339;-73
2021/01/25 09:34:56;;;;;;;;;;;-1.60;99.90;;;;;;5019568;28;19913;-71
2021/01/25 09:37:22;;;;;;;;;;;-1.00;99.90;;;;;;5023217;28;19923;-74
2021/01/25 09:39:47;;;;;;;;;;;-0.90;99.90;;;;;;5015131;28;19917;-75
2021/01/25 09:42:13;;;;;;;;;;;-1.30;99.90;;;;;;5015509;28;19921;-72
2021/01/25 09:44:39;;;;;;;;;;;-1.40;99.90;;;;;;5016363;28;19921;-74
2021/01/25 09:47:04;;;;;;;;;;;-1.40;99.90;;;;;;5032195;28;20361;-75
2021/01/25 09:49:30;;;;;;;;;;;-1.00;99.90;;;;;;5019201;28;19923;-76
2021/01/25 09:51:56;;;;;;;;;;;-1.10;99.90;;;;;;5016866;28;20001;-73
2021/01/25 09:54:21;;;;;;;;;;;-1.00;99.90;;;;;;5021495;28;19960;-70
2021/01/25 09:56:48;;;;;;;;;;;-1.50;99.90;;;;;;5021406;28;19917;-73
2021/01/25 09:59:13;;;;;;;;;;;-1.10;99.90;;;;;;5020076;28;19917;-74
2021/01/25 10:01:41;;;;;;;;;;;-0.80;99.90;;;;;;5019082;28;19913;-71
2021/01/25 10:04:07;;;;;;;;;;;-1.00;99.90;;;;;;5032306;28;19921;-74
2021/01/25 10:06:32;;;;;;;;;;;-0.70;99.90;;;;;;5016970;28;19921;-73
2021/01/25 10:08:58;;;;;;;;;;;-0.30;99.90;;;;;;5020392;28;19913;-70
2021/01/25 10:11:24;;;;;;;;;;;-0.50;99.90;;;;;;5036515;28;19917;-71
2021/01/25 10:13:50;;;;;;;;;;;-0.50;99.90;;;;;;5022230;28;19924;-71
2021/01/25 10:16:16;;;;;;;;;;;-0.40;99.90;;;;;;5024091;28;19917;-69
2021/01/25 10:18:41;;;;;;;;;;;-0.40;99.90;;;;;;5019456;28;19928;-71
2021/01/25 10:21:07;;;;;;;;;;;;;;;;;;5023286;28;19916;-72
2021/01/25 10:23:33;;;;;;;;;;;-0.20;99.90;;;;;;5023171;28;19917;-71
2021/01/25 10:25:59;;;;;;;;;;;0.10;99.90;;;;;;5022848;28;19928;-71
2021/01/25 10:28:25;;;;;;;;;;;0.20;99.90;;;;;;5022962;28;20008;-70
2021/01/25 10:30:50;;;;;;;;;;;0.40;99.90;;;;;;5019361;28;20130;-69
2021/01/25 10:33:16;;;;;;;;;;;0.50;99.90;;;;;;5021159;28;19959;-72
2021/01/25 10:35:42;;;;;;;;;;;0.70;99.90;;;;;;5022118;28;19917;-71
2021/01/25 10:38:08;;;;;;;;;;;0.70;99.90;;;;;;5022010;28;19920;-72
2021/01/25 10:40:33;;;;;;;;;;;0.90;99.90;;;;;;5021473;28;20024;-70
2021/01/25 10:42:58;;;;;;;;;;;0.90;99.90;;;;;;5024588;28;19956;-72
2021/01/25 10:45:24;;;;;;;;;;;0.80;99.90;;;;;;5024766;28;20352;-71
2021/01/25 10:47:50;;;;;;;;;;;1.00;99.90;;;;;;5021805;28;19925;-71
2021/01/25 10:50:16;;;;;;;;;;;1.00;99.90;;;;;;5019782;28;19921;-74
2021/01/25 10:52:42;;;;;;;;;;;1.10;99.90;;;;;;5022733;28;20012;-73
2021/01/25 10:55:08;;;;;;;;;;;1.20;99.90;;;;;;5020049;28;20016;-72
2021/01/25 10:57:34;;;;;;;;;;;1.20;99.90;;;;;;5023089;28;19967;-71
2021/01/25 11:00:04;;;;;;;;;;;1.70;99.90;;;;;;5021341;28;19963;-71
2021/01/25 11:02:30;;;;;;;;;;;1.80;99.90;;;;;;5018392;28;20592;-72
2021/01/25 11:04:55;;;;;;;;;;;1.50;99.90;;;;;;5018435;28;19931;-70
2021/01/25 11:07:21;;;;;;;;;;;1.60;99.90;;;;;;5021199;28;19917;-69
2021/01/25 11:09:47;;;;;;;;;;;1.60;99.90;;;;;;5022177;28;20668;-70
2021/01/25 11:12:12;;;;;;;;;;;1.80;99.90;;;;;;5021362;28;19921;-71
2021/01/25 11:14:38;;;;;;;;;;;2.10;99.90;;;;;;5019120;28;19916;-69
2021/01/25 11:17:03;;;;;;;;;;;1.60;99.90;;;;;;5020966;28;19917;-71
2021/01/25 11:19:29;;;;;;;;;;;1.70;99.90;;;;;;5019322;28;20188;-70
2021/01/25 11:21:54;;;;;;;;;;;2.00;99.90;;;;;;5006210;28;20000;-70
2021/01/25 11:24:20;;;;;;;;;;;1.80;99.90;;;;;;5019791;28;19921;-70
2021/01/25 11:26:45;;;;;;;;;;;1.80;99.90;;;;;;5024557;28;19924;-69
2021/01/25 11:29:12;;;;;;;;;;;1.80;99.90;;;;;;5024902;28;19924;-70
2021/01/25 11:31:37;;;;;;;;;;;1.90;99.90;;;;;;5019755;28;20008;-69
2021/01/25 11:34:03;;;;;;;;;;;1.70;99.90;;;;;;5021071;28;20973;-68
2021/01/25 11:36:28;;;;;;;;;;;1.70;99.90;;;;;;5021784;28;19913;-69
2021/01/25 11:38:54;;;;;;;;;;;1.80;99.90;;;;;;5020348;28;19913;-70
2021/01/25 11:41:19;;;;;;;;;;;1.60;99.90;;;;;;5022911;28;19995;-70
2021/01/25 11:43:45;;;;;;;;;;;1.70;99.90;;;;;;5020021;28;20024;-71
2021/01/25 11:46:11;;;;;;;;;;;1.80;99.90;;;;;;5021270;28;19956;-73
2021/01/25 11:48:36;;;;;;;;;;;1.50;99.90;;;;;;5023127;28;19917;-72
2021/01/25 11:51:02;;;;;;;;;;;1.50;99.90;;;;;;5021982;28;20339;-71
2021/01/25 11:53:27;;;;;;;;;;;1.60;99.90;;;;;;5020653;28;19923;-69
2021/01/25 11:55:53;;;;;;;;;;;1.50;99.90;;;;;;5019481;28;19924;-69
2021/01/25 11:58:18;;;;;;;;;;;1.70;99.90;;;;;;5022487;28;19917;-69
2021/01/25 12:00:46;;;;;;;;;;;2.00;99.90;;;;;;5019185;28;19917;-69
2021/01/25 12:03:12;;;;;;;;;;;2.50;99.90;;;;;;5019176;28;20015;-69
2021/01/25 12:05:37;;;;;;;;;;;2.10;99.90;;;;;;5021389;28;19947;-69
2021/01/25 12:08:03;;;;;;;;;;;1.60;99.90;;;;;;5018779;28;19920;-68
2021/01/25 12:10:29;;;;;;;;;;;1.70;99.90;;;;;;5021173;28;19917;-68
2021/01/25 12:12:55;;;;;;;;;;;1.90;99.90;;;;;;5021081;28;20296;-68
2021/01/25 12:15:20;;;;;;;;;;;1.80;99.90;;;;;;5019101;28;19957;-69
2021/01/25 12:17:45;;;;;;;;;;;2.70;99.90;;;;;;5020862;28;19952;-68
2021/01/25 12:20:11;;;;;;;;;;;1.80;99.90;;;;;;5001455;28;20503;-68
2021/01/25 12:22:37;;;;;;;;;;;1.70;99.90;;;;;;5018442;28;19999;-69
2021/01/25 12:25:03;;;;;;;;;;;2.00;99.90;;;;;;5018583;28;20371;-68
2021/01/25 12:27:29;;;;;;;;;;;1.70;99.90;;;;;;5019095;28;19974;-70
2021/01/25 12:29:55;;;;;;;;;;;1.80;99.90;;;;;;5018480;28;19960;-71
2021/01/25 12:32:20;;;;;;;;;;;2.10;99.90;;;;;;5016528;28;19952;-70
2021/01/25 12:34:46;;;;;;;;;;;2.30;99.90;;;;;;5020909;28;19913;-70
2021/01/25 12:37:18;;;;;;;;;;;1.80;99.90;;;;;;5021119;27;19922;-69
2021/01/25 12:39:44;;;;;;;;;;;2.00;99.90;;;;;;4979303;28;19933;-69
2021/01/25 12:42:09;;;;;;;;;;;3.50;99.90;;;;;;5003387;28;19922;-69
2021/01/25 12:44:35;;;;;;;;;;;1.70;99.90;;;;;;4986399;28;20414;-70
2021/01/25 12:47:02;;;;;;;;;;;2.10;99.90;;;;;;4987609;28;19948;-69
2021/01/25 12:49:28;;;;;;;;;;;2.60;99.90;;;;;;4984330;28;20835;-69
2021/01/25 12:51:54;;;;;;;;;;;2.10;99.90;;;;;;4981605;28;19919;-69
2021/01/25 12:54:20;;;;;;;;;;;2.00;99.90;;;;;;5015198;28;19914;-69
2021/01/25 12:56:49;;;;;;;;;;;2.60;99.90;;;;;;4998708;28;19922;-69
2021/01/25 12:59:15;;;;;;;;;;;1.80;99.90;;;;;;4986679;28;19918;-69
2021/01/25 13:01:40;;;;;;;;;;;1.70;99.90;;;;;;4993933;28;19941;-69
2021/01/25 13:04:06;;;;;;;;;;;2.00;99.90;;;;;;4991981;28;19934;-69
2021/01/25 13:06:32;;;;;;;;;;;2.50;99.90;;;;;;5000262;28;20519;-69
2021/01/25 13:08:57;;;;;;;;;;;1.50;99.90;;;;;;5004265;28;20524;-70
2021/01/25 13:11:23;;;;;;;;;;;1.80;99.90;;;;;;5005663;28;19918;-70
2021/01/25 13:13:48;;;;;;;;;;;1.80;99.90;;;;;;5018013;28;19915;-70
2021/01/25 13:16:14;;;;;;;;;;;1.30;99.90;;;;;;4996719;28;19929;-69
2021/01/25 13:18:40;;;;;;;;;;;1.60;99.90;;;;;;4979744;28;19922;-70
2021/01/25 13:21:06;;;;;;;;;;;1.50;99.90;;;;;;4986628;28;19926;-69
2021/01/25 13:23:31;;;;;;;;;;;1.40;99.90;;;;;;5011007;28;20036;-69
2021/01/25 13:25:57;;;;;;;;;;;1.30;99.90;;;;;;5024719;28;20001;-69
2021/01/25 13:28:23;;;;;;;;;;;1.70;99.90;;;;;;4978440;28;20478;-69
2021/01/25 13:30:48;;;;;;;;;;;1.20;99.90;;;;;;4975005;28;19918;-69
2021/01/25 13:33:13;;;;;;;;;;;1.30;99.90;;;;;;4985881;28;20426;-71
2021/01/25 13:35:39;;;;;;;;;;;1.00;99.90;;;;;;5020708;27;19923;-70
2021/01/25 13:38:05;;;;;;;;;;;1.40;99.90;;;;;;4977941;28;19918;-70
2021/01/25 13:40:31;;;;;;;;;;;1.20;99.90;;;;;;4993693;28;19918;-69
2021/01/25 13:42:59;;;;;;;;;;;1.10;99.90;;;;;;4977319;28;19922;-70
2021/01/25 13:45:26;;;;;;;;;;;1.00;99.90;;;;;;5000643;28;20018;-69
2021/01/25 13:47:52;;;;;;;;;;;1.20;99.90;;;;;;4975519;28;19922;-70
2021/01/25 13:50:18;;;;;;;;;;;1.20;99.90;;;;;;4998110;28;20626;-70
2021/01/25 13:52:44;;;;;;;;;;;1.10;99.90;;;;;;4961671;28;19922;-70
2021/01/25 13:55:09;;;;;;;;;;;1.10;99.90;;;;;;4975327;28;19961;-70
2021/01/25 13:57:35;;;;;;;;;;;1.00;99.90;;;;;;5006011;28;20550;-70
2021/01/25 14:00:02;;;;;;;;;;;0.80;99.90;;;;;;4974478;28;20355;-70
2021/01/25 14:02:28;;;;;;;;;;;1.00;99.90;;;;;;4986305;28;20008;-70
2021/01/25 14:04:54;;;;;;;;;;;1.30;99.90;;;;;;4975279;28;20421;-69
2021/01/25 14:07:20;;;;;;;;;;;0.90;99.90;;;;;;4972914;28;19922;-70
2021/01/25 14:09:45;;;;;;;;;;;0.90;99.90;;;;;;4993077;28;19912;-70
2021/01/25 14:12:11;;;;;;;;;;;0.80;99.90;;;;;;4984159;28;19921;-67
2021/01/25 14:14:37;;;;;;;;;;;1.00;99.90;;;;;;4977758;28;20249;-69
2021/01/25 14:17:03;;;;;;;;;;;0.80;99.90;;;;;;4985491;28;20388;-69
2021/01/25 14:19:28;;;;;;;;;;;0.90;99.90;;;;;;5023851;28;19918;-70